Terminal Aerodrome Forecast
Issued by NWS

Home | Current Version | Previous Version | Text Only | Print | Product List | Glossary On
Versions: 1 2 3 4 5 6 7 8 9 10 11 12 13
000
FTUS45 KABQ 011100
TAFSAF
TAF
KSAF 011120Z 0112/0212 35008KT P6SM SKC
     FM011730 25011KT P6SM FEW070
     FM012000 25014G24KT P6SM VCSH SCT080 BKN120
     FM020000 28012G22KT P6SM VCSH SCT080 BKN120
     FM020400 33011KT P6SM SCT080=

USA.gov is the U.S. government's official web portal to all federal, state and local government web resources and services.